sensor_id;sensor_type;location;lat;lon;timestamp;P1;durP1;ratioP1;P2;durP2;ratioP2
22764;SDS011;11549;50.852;3.816;2022-11-27T00:01:17;17.27;;;8.65;;
22764;SDS011;11549;50.852;3.816;2022-11-27T00:03:48;17.77;;;8.75;;
22764;SDS011;11549;50.852;3.816;2022-11-27T00:06:18;14.48;;;8.77;;
22764;SDS011;11549;50.852;3.816;2022-11-27T00:08:47;18.55;;;8.52;;
22764;SDS011;11549;50.852;3.816;2022-11-27T00:11:17;15.05;;;8.55;;
22764;SDS011;11549;50.852;3.816;2022-11-27T00:13:46;19.27;;;8.32;;
22764;SDS011;11549;50.852;3.816;2022-11-27T00:16:15;20.73;;;9.63;;
22764;SDS011;11549;50.852;3.816;2022-11-27T00:18:46;17.13;;;8.40;;
22764;SDS011;11549;50.852;3.816;2022-11-27T00:21:16;18.27;;;8.65;;
22764;SDS011;11549;50.852;3.816;2022-11-27T00:23:48;17.80;;;8.77;;
22764;SDS011;11549;50.852;3.816;2022-11-27T00:26:16;19.10;;;8.85;;
22764;SDS011;11549;50.852;3.816;2022-11-27T00:28:44;15.07;;;8.02;;
22764;SDS011;11549;50.852;3.816;2022-11-27T00:31:14;17.60;;;8.02;;
22764;SDS011;11549;50.852;3.816;2022-11-27T00:33:46;17.05;;;8.68;;
22764;SDS011;11549;50.852;3.816;2022-11-27T00:36:15;19.02;;;8.65;;
22764;SDS011;11549;50.852;3.816;2022-11-27T00:38:43;18.30;;;9.60;;
22764;SDS011;11549;50.852;3.816;2022-11-27T00:41:13;21.45;;;8.82;;
22764;SDS011;11549;50.852;3.816;2022-11-27T00:43:43;20.80;;;9.27;;
22764;SDS011;11549;50.852;3.816;2022-11-27T00:46:11;16.65;;;8.73;;
22764;SDS011;11549;50.852;3.816;2022-11-27T00:48:40;22.90;;;9.38;;
22764;SDS011;11549;50.852;3.816;2022-11-27T00:51:12;22.55;;;9.95;;
22764;SDS011;11549;50.852;3.816;2022-11-27T00:53:41;20.38;;;9.55;;
22764;SDS011;11549;50.852;3.816;2022-11-27T00:56:11;21.98;;;10.35;;
22764;SDS011;11549;50.852;3.816;2022-11-27T00:58:43;18.50;;;9.10;;
22764;SDS011;11549;50.852;3.816;2022-11-27T01:01:12;21.70;;;10.25;;
22764;SDS011;11549;50.852;3.816;2022-11-27T01:03:44;19.45;;;10.70;;
22764;SDS011;11549;50.852;3.816;2022-11-27T01:06:14;21.65;;;10.55;;
22764;SDS011;11549;50.852;3.816;2022-11-27T01:08:43;22.73;;;10.10;;
22764;SDS011;11549;50.852;3.816;2022-11-27T01:11:12;18.63;;;10.05;;
22764;SDS011;11549;50.852;3.816;2022-11-27T01:13:42;20.17;;;10.38;;
22764;SDS011;11549;50.852;3.816;2022-11-27T01:16:12;22.92;;;9.95;;
22764;SDS011;11549;50.852;3.816;2022-11-27T01:18:44;24.42;;;10.20;;
22764;SDS011;11549;50.852;3.816;2022-11-27T01:21:15;19.20;;;9.43;;
22764;SDS011;11549;50.852;3.816;2022-11-27T01:23:47;25.83;;;10.80;;
22764;SDS011;11549;50.852;3.816;2022-11-27T01:26:17;24.00;;;10.35;;
22764;SDS011;11549;50.852;3.816;2022-11-27T01:28:45;20.67;;;9.50;;
22764;SDS011;11549;50.852;3.816;2022-11-27T01:31:15;25.25;;;10.20;;
22764;SDS011;11549;50.852;3.816;2022-11-27T01:33:44;25.45;;;10.80;;
22764;SDS011;11549;50.852;3.816;2022-11-27T01:36:15;24.75;;;9.88;;
22764;SDS011;11549;50.852;3.816;2022-11-27T01:38:43;24.05;;;8.75;;
22764;SDS011;11549;50.852;3.816;2022-11-27T01:41:12;24.23;;;9.52;;
22764;SDS011;11549;50.852;3.816;2022-11-27T01:43:43;25.08;;;9.20;;
22764;SDS011;11549;50.852;3.816;2022-11-27T01:46:15;20.50;;;8.95;;
22764;SDS011;11549;50.852;3.816;2022-11-27T01:48:53;21.60;;;9.32;;
22764;SDS011;11549;50.852;3.816;2022-11-27T01:51:27;24.70;;;9.38;;
22764;SDS011;11549;50.852;3.816;2022-11-27T01:53:57;24.45;;;8.70;;
22764;SDS011;11549;50.852;3.816;2022-11-27T01:56:25;21.00;;;8.65;;
22764;SDS011;11549;50.852;3.816;2022-11-27T01:58:55;19.10;;;8.05;;
22764;SDS011;11549;50.852;3.816;2022-11-27T02:01:24;21.45;;;8.18;;
22764;SDS011;11549;50.852;3.816;2022-11-27T02:03:52;23.55;;;9.05;;
22764;SDS011;11549;50.852;3.816;2022-11-27T02:06:24;19.23;;;7.32;;
22764;SDS011;11549;50.852;3.816;2022-11-27T02:08:54;21.70;;;7.53;;
22764;SDS011;11549;50.852;3.816;2022-11-27T02:11:24;19.00;;;6.65;;
22764;SDS011;11549;50.852;3.816;2022-11-27T02:13:59;16.85;;;6.40;;
22764;SDS011;11549;50.852;3.816;2022-11-27T02:16:35;18.08;;;6.50;;
22764;SDS011;11549;50.852;3.816;2022-11-27T02:19:13;21.90;;;6.63;;
22764;SDS011;11549;50.852;3.816;2022-11-27T02:21:50;16.02;;;6.05;;
22764;SDS011;11549;50.852;3.816;2022-11-27T02:24:43;14.70;;;5.75;;
22764;SDS011;11549;50.852;3.816;2022-11-27T02:27:23;18.63;;;6.13;;
22764;SDS011;11549;50.852;3.816;2022-11-27T02:30:07;20.70;;;5.53;;
22764;SDS011;11549;50.852;3.816;2022-11-27T02:32:37;13.80;;;5.10;;
22764;SDS011;11549;50.852;3.816;2022-11-27T02:35:08;13.80;;;5.50;;
22764;SDS011;11549;50.852;3.816;2022-11-27T02:40:14;19.30;;;6.38;;
22764;SDS011;11549;50.852;3.816;2022-11-27T02:42:48;12.88;;;4.85;;
22764;SDS011;11549;50.852;3.816;2022-11-27T02:47:53;15.75;;;4.88;;
22764;SDS011;11549;50.852;3.816;2022-11-27T02:50:24;16.05;;;4.90;;
22764;SDS011;11549;50.852;3.816;2022-11-27T02:52:54;15.05;;;5.10;;
22764;SDS011;11549;50.852;3.816;2022-11-27T02:55:27;14.82;;;5.35;;
22764;SDS011;11549;50.852;3.816;2022-11-27T02:58:00;16.38;;;5.25;;
22764;SDS011;11549;50.852;3.816;2022-11-27T03:00:32;17.35;;;4.93;;
22764;SDS011;11549;50.852;3.816;2022-11-27T03:03:03;15.20;;;4.90;;
22764;SDS011;11549;50.852;3.816;2022-11-27T03:05:40;17.85;;;5.20;;
22764;SDS011;11549;50.852;3.816;2022-11-27T03:08:12;12.75;;;5.00;;
22764;SDS011;11549;50.852;3.816;2022-11-27T03:10:47;15.27;;;4.43;;
22764;SDS011;11549;50.852;3.816;2022-11-27T03:13:19;12.73;;;4.22;;
22764;SDS011;11549;50.852;3.816;2022-11-27T03:15:50;17.48;;;5.00;;
22764;SDS011;11549;50.852;3.816;2022-11-27T03:18:30;14.57;;;4.78;;
22764;SDS011;11549;50.852;3.816;2022-11-27T03:21:08;13.70;;;5.38;;
22764;SDS011;11549;50.852;3.816;2022-11-27T03:23:49;17.92;;;5.70;;
22764;SDS011;11549;50.852;3.816;2022-11-27T03:26:17;13.27;;;4.72;;
22764;SDS011;11549;50.852;3.816;2022-11-27T03:28:46;15.27;;;5.43;;
22764;SDS011;11549;50.852;3.816;2022-11-27T03:31:17;18.35;;;5.63;;
22764;SDS011;11549;50.852;3.816;2022-11-27T03:33:46;10.45;;;3.95;;
22764;SDS011;11549;50.852;3.816;2022-11-27T03:36:15;12.98;;;4.93;;
22764;SDS011;11549;50.852;3.816;2022-11-27T03:38:44;13.82;;;4.55;;
22764;SDS011;11549;50.852;3.816;2022-11-27T03:41:16;14.52;;;5.57;;
22764;SDS011;11549;50.852;3.816;2022-11-27T03:43:54;13.48;;;4.85;;
22764;SDS011;11549;50.852;3.816;2022-11-27T03:46:32;13.57;;;4.70;;
22764;SDS011;11549;50.852;3.816;2022-11-27T03:49:12;17.17;;;5.00;;
22764;SDS011;11549;50.852;3.816;2022-11-27T03:51:46;10.30;;;5.00;;
22764;SDS011;11549;50.852;3.816;2022-11-27T03:54:23;14.95;;;4.88;;
22764;SDS011;11549;50.852;3.816;2022-11-27T03:57:00;13.60;;;5.43;;
22764;SDS011;11549;50.852;3.816;2022-11-27T03:59:33;13.57;;;4.85;;
22764;SDS011;11549;50.852;3.816;2022-11-27T04:02:09;13.63;;;5.15;;
22764;SDS011;11549;50.852;3.816;2022-11-27T04:04:39;18.80;;;5.68;;
22764;SDS011;11549;50.852;3.816;2022-11-27T04:07:08;16.70;;;5.57;;
22764;SDS011;11549;50.852;3.816;2022-11-27T04:09:42;13.95;;;4.68;;
22764;SDS011;11549;50.852;3.816;2022-11-27T04:12:11;15.38;;;5.57;;
22764;SDS011;11549;50.852;3.816;2022-11-27T04:14:39;13.30;;;4.95;;
22764;SDS011;11549;50.852;3.816;2022-11-27T04:17:09;15.52;;;5.15;;
22764;SDS011;11549;50.852;3.816;2022-11-27T04:19:37;15.13;;;5.00;;
22764;SDS011;11549;50.852;3.816;2022-11-27T04:22:05;17.20;;;5.55;;
22764;SDS011;11549;50.852;3.816;2022-11-27T04:24:34;15.82;;;5.70;;
22764;SDS011;11549;50.852;3.816;2022-11-27T04:27:02;12.38;;;5.28;;
22764;SDS011;11549;50.852;3.816;2022-11-27T04:29:31;18.42;;;6.15;;
22764;SDS011;11549;50.852;3.816;2022-11-27T04:31:59;17.73;;;6.00;;
22764;SDS011;11549;50.852;3.816;2022-11-27T04:34:28;17.33;;;5.78;;
22764;SDS011;11549;50.852;3.816;2022-11-27T04:36:57;15.43;;;5.90;;
22764;SDS011;11549;50.852;3.816;2022-11-27T04:39:25;16.40;;;6.00;;
22764;SDS011;11549;50.852;3.816;2022-11-27T04:41:54;17.80;;;6.07;;
22764;SDS011;11549;50.852;3.816;2022-11-27T04:44:22;14.82;;;5.82;;
22764;SDS011;11549;50.852;3.816;2022-11-27T04:46:50;13.48;;;5.80;;
22764;SDS011;11549;50.852;3.816;2022-11-27T04:49:19;15.38;;;6.25;;
22764;SDS011;11549;50.852;3.816;2022-11-27T04:51:49;12.88;;;5.47;;
22764;SDS011;11549;50.852;3.816;2022-11-27T04:54:17;15.95;;;6.38;;
22764;SDS011;11549;50.852;3.816;2022-11-27T04:56:45;14.57;;;5.88;;
22764;SDS011;11549;50.852;3.816;2022-11-27T04:59:13;13.38;;;5.53;;
22764;SDS011;11549;50.852;3.816;2022-11-27T05:01:42;15.60;;;6.20;;
22764;SDS011;11549;50.852;3.816;2022-11-27T05:04:10;13.93;;;5.15;;
22764;SDS011;11549;50.852;3.816;2022-11-27T05:06:38;16.38;;;6.03;;
22764;SDS011;11549;50.852;3.816;2022-11-27T05:09:09;13.50;;;5.57;;
22764;SDS011;11549;50.852;3.816;2022-11-27T05:11:37;13.80;;;5.45;;
22764;SDS011;11549;50.852;3.816;2022-11-27T05:14:05;15.00;;;6.22;;
22764;SDS011;11549;50.852;3.816;2022-11-27T05:16:44;13.32;;;5.25;;
22764;SDS011;11549;50.852;3.816;2022-11-27T05:19:14;14.68;;;5.55;;
22764;SDS011;11549;50.852;3.816;2022-11-27T05:21:44;14.68;;;5.88;;
22764;SDS011;11549;50.852;3.816;2022-11-27T05:24:15;12.90;;;5.10;;
22764;SDS011;11549;50.852;3.816;2022-11-27T05:26:45;11.70;;;5.43;;
22764;SDS011;11549;50.852;3.816;2022-11-27T05:29:14;14.27;;;5.20;;
22764;SDS011;11549;50.852;3.816;2022-11-27T05:31:43;13.02;;;5.80;;
22764;SDS011;11549;50.852;3.816;2022-11-27T05:34:11;13.38;;;5.55;;
22764;SDS011;11549;50.852;3.816;2022-11-27T05:36:40;13.80;;;5.85;;
22764;SDS011;11549;50.852;3.816;2022-11-27T05:39:09;13.70;;;6.00;;
22764;SDS011;11549;50.852;3.816;2022-11-27T05:41:39;15.85;;;5.95;;
22764;SDS011;11549;50.852;3.816;2022-11-27T05:44:10;12.23;;;5.68;;
22764;SDS011;11549;50.852;3.816;2022-11-27T05:46:39;14.38;;;5.53;;
22764;SDS011;11549;50.852;3.816;2022-11-27T05:49:09;12.35;;;5.53;;
22764;SDS011;11549;50.852;3.816;2022-11-27T05:51:39;13.27;;;5.93;;
22764;SDS011;11549;50.852;3.816;2022-11-27T05:54:16;13.68;;;5.47;;
22764;SDS011;11549;50.852;3.816;2022-11-27T05:56:45;12.88;;;5.60;;
22764;SDS011;11549;50.852;3.816;2022-11-27T05:59:14;13.43;;;5.55;;
22764;SDS011;11549;50.852;3.816;2022-11-27T06:01:42;19.45;;;7.03;;
22764;SDS011;11549;50.852;3.816;2022-11-27T06:04:10;14.63;;;6.40;;
22764;SDS011;11549;50.852;3.816;2022-11-27T06:06:39;17.92;;;6.68;;
22764;SDS011;11549;50.852;3.816;2022-11-27T06:09:07;11.18;;;6.28;;
22764;SDS011;11549;50.852;3.816;2022-11-27T06:11:39;13.98;;;6.15;;
22764;SDS011;11549;50.852;3.816;2022-11-27T06:14:09;16.35;;;6.47;;
22764;SDS011;11549;50.852;3.816;2022-11-27T06:16:38;15.43;;;7.00;;
22764;SDS011;11549;50.852;3.816;2022-11-27T06:19:06;16.05;;;7.63;;
22764;SDS011;11549;50.852;3.816;2022-11-27T06:21:35;15.23;;;6.88;;
22764;SDS011;11549;50.852;3.816;2022-11-27T06:24:03;14.75;;;6.65;;
22764;SDS011;11549;50.852;3.816;2022-11-27T06:26:32;16.20;;;6.35;;
22764;SDS011;11549;50.852;3.816;2022-11-27T06:29:01;16.77;;;6.88;;
22764;SDS011;11549;50.852;3.816;2022-11-27T06:31:31;15.65;;;6.78;;
22764;SDS011;11549;50.852;3.816;2022-11-27T06:34:00;14.77;;;7.00;;
22764;SDS011;11549;50.852;3.816;2022-11-27T06:36:30;14.27;;;6.30;;
22764;SDS011;11549;50.852;3.816;2022-11-27T06:39:00;13.27;;;7.10;;
22764;SDS011;11549;50.852;3.816;2022-11-27T06:41:29;12.70;;;6.25;;
22764;SDS011;11549;50.852;3.816;2022-11-27T06:43:58;16.08;;;6.78;;
22764;SDS011;11549;50.852;3.816;2022-11-27T06:46:27;14.85;;;7.25;;
22764;SDS011;11549;50.852;3.816;2022-11-27T06:48:57;17.30;;;7.03;;
22764;SDS011;11549;50.852;3.816;2022-11-27T06:51:26;14.55;;;6.85;;
22764;SDS011;11549;50.852;3.816;2022-11-27T06:53:56;17.63;;;7.40;;
22764;SDS011;11549;50.852;3.816;2022-11-27T06:56:27;18.45;;;6.90;;
22764;SDS011;11549;50.852;3.816;2022-11-27T06:58:58;17.23;;;7.63;;
22764;SDS011;11549;50.852;3.816;2022-11-27T07:01:28;14.60;;;7.20;;
22764;SDS011;11549;50.852;3.816;2022-11-27T07:03:59;19.02;;;7.60;;
22764;SDS011;11549;50.852;3.816;2022-11-27T07:06:27;17.15;;;7.72;;
22764;SDS011;11549;50.852;3.816;2022-11-27T07:08:56;15.18;;;7.43;;
22764;SDS011;11549;50.852;3.816;2022-11-27T07:11:24;19.02;;;8.05;;
22764;SDS011;11549;50.852;3.816;2022-11-27T07:13:56;17.48;;;8.15;;
22764;SDS011;11549;50.852;3.816;2022-11-27T07:16:26;13.77;;;7.70;;
22764;SDS011;11549;50.852;3.816;2022-11-27T07:18:56;13.60;;;7.28;;
22764;SDS011;11549;50.852;3.816;2022-11-27T07:21:28;16.05;;;7.47;;
22764;SDS011;11549;50.852;3.816;2022-11-27T07:23:56;15.82;;;7.50;;
22764;SDS011;11549;50.852;3.816;2022-11-27T07:26:25;16.58;;;8.38;;
22764;SDS011;11549;50.852;3.816;2022-11-27T07:28:55;16.98;;;7.70;;
22764;SDS011;11549;50.852;3.816;2022-11-27T07:31:24;14.57;;;7.75;;
22764;SDS011;11549;50.852;3.816;2022-11-27T07:33:54;16.38;;;7.70;;
22764;SDS011;11549;50.852;3.816;2022-11-27T07:36:25;21.77;;;8.05;;
22764;SDS011;11549;50.852;3.816;2022-11-27T07:38:54;17.77;;;8.40;;
22764;SDS011;11549;50.852;3.816;2022-11-27T07:41:23;14.00;;;7.68;;
22764;SDS011;11549;50.852;3.816;2022-11-27T07:43:58;14.70;;;7.15;;
22764;SDS011;11549;50.852;3.816;2022-11-27T07:46:27;15.27;;;8.27;;
22764;SDS011;11549;50.852;3.816;2022-11-27T07:48:56;13.82;;;7.22;;
22764;SDS011;11549;50.852;3.816;2022-11-27T07:51:27;14.82;;;7.43;;
22764;SDS011;11549;50.852;3.816;2022-11-27T07:53:56;12.55;;;7.68;;
22764;SDS011;11549;50.852;3.816;2022-11-27T07:56:26;15.32;;;7.75;;
22764;SDS011;11549;50.852;3.816;2022-11-27T07:58:55;16.30;;;7.80;;
22764;SDS011;11549;50.852;3.816;2022-11-27T08:01:23;14.63;;;7.75;;
22764;SDS011;11549;50.852;3.816;2022-11-27T08:03:53;15.18;;;7.15;;
22764;SDS011;11549;50.852;3.816;2022-11-27T08:06:23;19.73;;;8.32;;
22764;SDS011;11549;50.852;3.816;2022-11-27T08:08:54;15.52;;;7.97;;
22764;SDS011;11549;50.852;3.816;2022-11-27T08:11:23;14.13;;;7.88;;
22764;SDS011;11549;50.852;3.816;2022-11-27T08:13:55;18.25;;;8.68;;
22764;SDS011;11549;50.852;3.816;2022-11-27T08:16:25;17.75;;;8.52;;
22764;SDS011;11549;50.852;3.816;2022-11-27T08:18:53;16.30;;;8.60;;
22764;SDS011;11549;50.852;3.816;2022-11-27T08:21:22;16.88;;;8.05;;
22764;SDS011;11549;50.852;3.816;2022-11-27T08:23:50;18.33;;;7.95;;
22764;SDS011;11549;50.852;3.816;2022-11-27T08:26:20;16.50;;;8.60;;
22764;SDS011;11549;50.852;3.816;2022-11-27T08:28:50;16.55;;;7.95;;
22764;SDS011;11549;50.852;3.816;2022-11-27T08:31:19;15.00;;;8.20;;
22764;SDS011;11549;50.852;3.816;2022-11-27T08:33:47;15.80;;;8.38;;
22764;SDS011;11549;50.852;3.816;2022-11-27T08:36:16;15.70;;;8.60;;
22764;SDS011;11549;50.852;3.816;2022-11-27T08:38:44;19.60;;;9.32;;
22764;SDS011;11549;50.852;3.816;2022-11-27T08:41:12;14.77;;;8.80;;
22764;SDS011;11549;50.852;3.816;2022-11-27T08:43:42;17.80;;;9.80;;
22764;SDS011;11549;50.852;3.816;2022-11-27T08:46:11;18.42;;;9.50;;
22764;SDS011;11549;50.852;3.816;2022-11-27T08:48:39;21.27;;;11.20;;
22764;SDS011;11549;50.852;3.816;2022-11-27T08:51:08;20.50;;;9.95;;
22764;SDS011;11549;50.852;3.816;2022-11-27T08:53:38;19.70;;;10.40;;
22764;SDS011;11549;50.852;3.816;2022-11-27T08:56:10;16.95;;;8.68;;
22764;SDS011;11549;50.852;3.816;2022-11-27T08:58:43;16.13;;;8.57;;
22764;SDS011;11549;50.852;3.816;2022-11-27T09:01:13;18.17;;;8.45;;
22764;SDS011;11549;50.852;3.816;2022-11-27T09:03:43;16.38;;;8.70;;
22764;SDS011;11549;50.852;3.816;2022-11-27T09:06:12;14.73;;;8.13;;
22764;SDS011;11549;50.852;3.816;2022-11-27T09:08:41;18.17;;;9.35;;
22764;SDS011;11549;50.852;3.816;2022-11-27T09:11:11;16.75;;;8.80;;
22764;SDS011;11549;50.852;3.816;2022-11-27T09:13:40;16.00;;;8.82;;
22764;SDS011;11549;50.852;3.816;2022-11-27T09:16:11;15.48;;;8.93;;
22764;SDS011;11549;50.852;3.816;2022-11-27T09:18:42;21.92;;;9.77;;
22764;SDS011;11549;50.852;3.816;2022-11-27T09:21:11;16.63;;;8.90;;
22764;SDS011;11549;50.852;3.816;2022-11-27T09:23:41;14.80;;;8.98;;
22764;SDS011;11549;50.852;3.816;2022-11-27T09:26:10;15.18;;;8.75;;
22764;SDS011;11549;50.852;3.816;2022-11-27T09:28:41;17.15;;;9.52;;
22764;SDS011;11549;50.852;3.816;2022-11-27T09:31:12;17.98;;;9.02;;
22764;SDS011;11549;50.852;3.816;2022-11-27T09:33:41;15.27;;;8.73;;
22764;SDS011;11549;50.852;3.816;2022-11-27T09:36:11;19.48;;;9.30;;
22764;SDS011;11549;50.852;3.816;2022-11-27T09:38:41;18.27;;;8.63;;
22764;SDS011;11549;50.852;3.816;2022-11-27T09:41:18;16.92;;;8.90;;
22764;SDS011;11549;50.852;3.816;2022-11-27T09:44:12;17.75;;;9.30;;
22764;SDS011;11549;50.852;3.816;2022-11-27T09:46:53;17.35;;;9.13;;
22764;SDS011;11549;50.852;3.816;2022-11-27T09:49:25;19.60;;;8.73;;
22764;SDS011;11549;50.852;3.816;2022-11-27T09:51:58;17.97;;;9.10;;
22764;SDS011;11549;50.852;3.816;2022-11-27T09:54:34;18.08;;;9.85;;
22764;SDS011;11549;50.852;3.816;2022-11-27T09:57:05;17.33;;;9.30;;
22764;SDS011;11549;50.852;3.816;2022-11-27T09:59:40;17.13;;;9.15;;
22764;SDS011;11549;50.852;3.816;2022-11-27T10:02:15;14.10;;;8.50;;
22764;SDS011;11549;50.852;3.816;2022-11-27T10:04:45;19.20;;;10.02;;
22764;SDS011;11549;50.852;3.816;2022-11-27T10:07:36;16.52;;;9.60;;
22764;SDS011;11549;50.852;3.816;2022-11-27T10:10:20;17.15;;;9.05;;
22764;SDS011;11549;50.852;3.816;2022-11-27T10:13:00;20.08;;;9.90;;
22764;SDS011;11549;50.852;3.816;2022-11-27T10:15:37;17.60;;;8.70;;
22764;SDS011;11549;50.852;3.816;2022-11-27T10:18:11;16.30;;;9.95;;
22764;SDS011;11549;50.852;3.816;2022-11-27T10:20:47;15.18;;;8.95;;
22764;SDS011;11549;50.852;3.816;2022-11-27T10:23:20;17.75;;;8.93;;
22764;SDS011;11549;50.852;3.816;2022-11-27T10:26:09;15.68;;;8.60;;
22764;SDS011;11549;50.852;3.816;2022-11-27T10:28:44;18.75;;;10.07;;
22764;SDS011;11549;50.852;3.816;2022-11-27T10:31:24;17.17;;;10.38;;
22764;SDS011;11549;50.852;3.816;2022-11-27T10:34:00;18.25;;;9.38;;
22764;SDS011;11549;50.852;3.816;2022-11-27T10:36:32;14.85;;;9.40;;
22764;SDS011;11549;50.852;3.816;2022-11-27T10:41:39;18.13;;;9.52;;
22764;SDS011;11549;50.852;3.816;2022-11-27T10:44:22;18.75;;;9.27;;
22764;SDS011;11549;50.852;3.816;2022-11-27T10:46:57;16.85;;;9.52;;
22764;SDS011;11549;50.852;3.816;2022-11-27T10:49:29;18.67;;;9.07;;
22764;SDS011;11549;50.852;3.816;2022-11-27T10:51:58;19.20;;;9.43;;
22764;SDS011;11549;50.852;3.816;2022-11-27T10:54:27;16.90;;;10.02;;
22764;SDS011;11549;50.852;3.816;2022-11-27T10:57:02;17.30;;;10.35;;
22764;SDS011;11549;50.852;3.816;2022-11-27T10:59:49;20.80;;;11.13;;
22764;SDS011;11549;50.852;3.816;2022-11-27T11:02:30;17.52;;;9.80;;
22764;SDS011;11549;50.852;3.816;2022-11-27T11:08:13;18.05;;;10.13;;
22764;SDS011;11549;50.852;3.816;2022-11-27T11:10:48;20.10;;;10.13;;
22764;SDS011;11549;50.852;3.816;2022-11-27T11:13:20;18.50;;;9.65;;
22764;SDS011;11549;50.852;3.816;2022-11-27T11:15:51;14.75;;;9.43;;
22764;SDS011;11549;50.852;3.816;2022-11-27T11:18:23;16.80;;;10.35;;
22764;SDS011;11549;50.852;3.816;2022-11-27T11:20:53;18.20;;;10.15;;
22764;SDS011;11549;50.852;3.816;2022-11-27T11:23:24;19.73;;;10.02;;
22764;SDS011;11549;50.852;3.816;2022-11-27T11:25:57;15.35;;;9.23;;
22764;SDS011;11549;50.852;3.816;2022-11-27T11:28:29;13.60;;;9.07;;
22764;SDS011;11549;50.852;3.816;2022-11-27T11:31:05;16.23;;;9.00;;
22764;SDS011;11549;50.852;3.816;2022-11-27T11:33:40;17.38;;;9.30;;
22764;SDS011;11549;50.852;3.816;2022-11-27T11:36:16;16.00;;;9.43;;
22764;SDS011;11549;50.852;3.816;2022-11-27T11:38:45;14.98;;;8.57;;
22764;SDS011;11549;50.852;3.816;2022-11-27T11:41:14;15.57;;;8.77;;
22764;SDS011;11549;50.852;3.816;2022-11-27T11:43:56;17.20;;;9.70;;
22764;SDS011;11549;50.852;3.816;2022-11-27T11:46:28;16.85;;;10.10;;
22764;SDS011;11549;50.852;3.816;2022-11-27T11:49:01;14.43;;;8.82;;
22764;SDS011;11549;50.852;3.816;2022-11-27T11:51:39;12.90;;;9.15;;
22764;SDS011;11549;50.852;3.816;2022-11-27T11:54:20;15.45;;;9.48;;
22764;SDS011;11549;50.852;3.816;2022-11-27T11:57:00;13.88;;;7.55;;
22764;SDS011;11549;50.852;3.816;2022-11-27T11:59:34;12.50;;;7.88;;
22764;SDS011;11549;50.852;3.816;2022-11-27T12:05:13;15.93;;;8.15;;
22764;SDS011;11549;50.852;3.816;2022-11-27T12:07:53;11.23;;;7.63;;
22764;SDS011;11549;50.852;3.816;2022-11-27T12:10:42;15.35;;;8.10;;
22764;SDS011;11549;50.852;3.816;2022-11-27T12:13:24;11.15;;;7.30;;
22764;SDS011;11549;50.852;3.816;2022-11-27T12:16:08;15.40;;;8.60;;
22764;SDS011;11549;50.852;3.816;2022-11-27T12:18:44;16.42;;;8.45;;
22764;SDS011;11549;50.852;3.816;2022-11-27T12:21:34;13.35;;;8.40;;
22764;SDS011;11549;50.852;3.816;2022-11-27T12:24:12;17.15;;;8.52;;
22764;SDS011;11549;50.852;3.816;2022-11-27T12:26:54;17.10;;;10.73;;
22764;SDS011;11549;50.852;3.816;2022-11-27T12:29:37;14.23;;;8.85;;
22764;SDS011;11549;50.852;3.816;2022-11-27T12:32:30;14.70;;;9.07;;
22764;SDS011;11549;50.852;3.816;2022-11-27T12:38:06;16.60;;;9.60;;
22764;SDS011;11549;50.852;3.816;2022-11-27T12:40:54;13.73;;;9.02;;
22764;SDS011;11549;50.852;3.816;2022-11-27T12:43:39;19.55;;;9.75;;
22764;SDS011;11549;50.852;3.816;2022-11-27T12:46:13;18.73;;;10.38;;
22764;SDS011;11549;50.852;3.816;2022-11-27T12:51:18;12.75;;;8.82;;
22764;SDS011;11549;50.852;3.816;2022-11-27T12:53:53;16.42;;;9.93;;
22764;SDS011;11549;50.852;3.816;2022-11-27T12:56:27;16.50;;;9.27;;
22764;SDS011;11549;50.852;3.816;2022-11-27T12:59:03;17.85;;;9.27;;
22764;SDS011;11549;50.852;3.816;2022-11-27T13:01:38;15.48;;;9.23;;
22764;SDS011;11549;50.852;3.816;2022-11-27T13:04:14;15.27;;;8.30;;
22764;SDS011;11549;50.852;3.816;2022-11-27T13:06:50;14.05;;;8.95;;
22764;SDS011;11549;50.852;3.816;2022-11-27T13:09:26;14.57;;;8.85;;
22764;SDS011;11549;50.852;3.816;2022-11-27T13:12:04;14.70;;;8.00;;
22764;SDS011;11549;50.852;3.816;2022-11-27T13:14:35;16.42;;;8.55;;
22764;SDS011;11549;50.852;3.816;2022-11-27T13:17:10;16.98;;;8.57;;
22764;SDS011;11549;50.852;3.816;2022-11-27T13:22:14;12.80;;;7.65;;
22764;SDS011;11549;50.852;3.816;2022-11-27T13:24:48;13.77;;;8.35;;
22764;SDS011;11549;50.852;3.816;2022-11-27T13:27:17;17.20;;;8.70;;
22764;SDS011;11549;50.852;3.816;2022-11-27T13:29:49;15.50;;;8.48;;
22764;SDS011;11549;50.852;3.816;2022-11-27T13:32:22;13.73;;;8.60;;
22764;SDS011;11549;50.852;3.816;2022-11-27T13:34:54;15.30;;;8.55;;
22764;SDS011;11549;50.852;3.816;2022-11-27T13:37:25;16.50;;;8.40;;
22764;SDS011;11549;50.852;3.816;2022-11-27T13:39:59;13.05;;;7.57;;
22764;SDS011;11549;50.852;3.816;2022-11-27T13:42:31;13.25;;;7.63;;
22764;SDS011;11549;50.852;3.816;2022-11-27T13:45:03;12.18;;;7.60;;
22764;SDS011;11549;50.852;3.816;2022-11-27T13:47:37;13.00;;;7.38;;
22764;SDS011;11549;50.852;3.816;2022-11-27T13:50:08;15.93;;;7.80;;
22764;SDS011;11549;50.852;3.816;2022-11-27T13:52:48;11.13;;;7.47;;
22764;SDS011;11549;50.852;3.816;2022-11-27T13:55:25;14.80;;;7.90;;
22764;SDS011;11549;50.852;3.816;2022-11-27T13:57:55;12.40;;;8.15;;
22764;SDS011;11549;50.852;3.816;2022-11-27T14:00:30;11.55;;;7.53;;
22764;SDS011;11549;50.852;3.816;2022-11-27T14:03:04;12.60;;;8.00;;
22764;SDS011;11549;50.852;3.816;2022-11-27T14:05:36;11.02;;;7.25;;
22764;SDS011;11549;50.852;3.816;2022-11-27T14:08:17;11.90;;;7.88;;
22764;SDS011;11549;50.852;3.816;2022-11-27T14:10:50;12.60;;;7.38;;
22764;SDS011;11549;50.852;3.816;2022-11-27T14:13:30;12.88;;;7.65;;
22764;SDS011;11549;50.852;3.816;2022-11-27T14:16:06;14.30;;;7.70;;
22764;SDS011;11549;50.852;3.816;2022-11-27T14:18:49;12.93;;;7.38;;
22764;SDS011;11549;50.852;3.816;2022-11-27T14:21:22;13.75;;;7.18;;
22764;SDS011;11549;50.852;3.816;2022-11-27T14:23:52;11.55;;;7.40;;
22764;SDS011;11549;50.852;3.816;2022-11-27T14:26:22;12.20;;;7.10;;
22764;SDS011;11549;50.852;3.816;2022-11-27T14:28:51;12.02;;;7.15;;
22764;SDS011;11549;50.852;3.816;2022-11-27T14:31:25;13.90;;;7.00;;
22764;SDS011;11549;50.852;3.816;2022-11-27T14:33:55;11.23;;;7.30;;
22764;SDS011;11549;50.852;3.816;2022-11-27T14:36:42;10.98;;;6.78;;
22764;SDS011;11549;50.852;3.816;2022-11-27T14:39:19;13.25;;;7.28;;
22764;SDS011;11549;50.852;3.816;2022-11-27T14:41:57;11.40;;;7.25;;
22764;SDS011;11549;50.852;3.816;2022-11-27T14:44:26;12.10;;;7.75;;
22764;SDS011;11549;50.852;3.816;2022-11-27T14:46:57;11.68;;;7.53;;
22764;SDS011;11549;50.852;3.816;2022-11-27T14:49:28;14.57;;;9.05;;
22764;SDS011;11549;50.852;3.816;2022-11-27T14:51:58;14.30;;;8.35;;
22764;SDS011;11549;50.852;3.816;2022-11-27T14:54:30;12.38;;;7.70;;
22764;SDS011;11549;50.852;3.816;2022-11-27T14:57:04;11.75;;;7.53;;
22764;SDS011;11549;50.852;3.816;2022-11-27T14:59:33;13.27;;;8.20;;
22764;SDS011;11549;50.852;3.816;2022-11-27T15:02:03;14.77;;;7.82;;
22764;SDS011;11549;50.852;3.816;2022-11-27T15:04:44;10.32;;;7.55;;
22764;SDS011;11549;50.852;3.816;2022-11-27T15:07:14;12.45;;;7.72;;
22764;SDS011;11549;50.852;3.816;2022-11-27T15:09:44;12.20;;;7.72;;
22764;SDS011;11549;50.852;3.816;2022-11-27T15:12:17;12.23;;;8.20;;
22764;SDS011;11549;50.852;3.816;2022-11-27T15:14:49;14.05;;;8.18;;
22764;SDS011;11549;50.852;3.816;2022-11-27T15:17:22;13.68;;;8.30;;
22764;SDS011;11549;50.852;3.816;2022-11-27T15:19:53;13.18;;;8.10;;
22764;SDS011;11549;50.852;3.816;2022-11-27T15:22:22;14.45;;;8.60;;
22764;SDS011;11549;50.852;3.816;2022-11-27T15:24:57;13.00;;;8.15;;